Aviation Digital Data Service (ADDS)

Output produced by METARs form (2102 UTC 23 January 2019)
found at http://www.aviationweather.gov/metar/data/
 
Forecast for: PGSN (SAIPAN/KOBLER , FM)
Text: PGSN 231824Z 2318/2418 08012KT P6SM FEW020 FEW040
Forecast period: 1800 UTC 23 January 2019 to 0000 UTC 24 January 2019
Forecast type: FROM: standard forecast or significant change
Winds: from the E (80 degrees) at 14 MPH (12 knots; 6.2 m/s)
Visibility: 6 or more miles 10+ km)
Ceiling: at least 12,000 feet AGL
Clouds: few clouds at 2000 feet AGL
few clouds at 4000 feet AGL
Weather: no significant weather forecast for this period
Text: FM240000 07012G18KT P6SM FEW020 SCT040
Forecast period: 0000 to 0900 UTC 24 January 2019
Forecast type: FROM: standard forecast or significant change
Winds: from the ENE (70 degrees) at 14 MPH (12 knots; 6.2 m/s)
gusting to 21 MPH (18 knots; 9.3 m/s)
Visibility: 6 or more miles 10+ km)
Ceiling: at least 12,000 feet AGL
Clouds: few clouds at 2000 feet AGL
scattered clouds at 4000 feet AGL
Weather: no significant weather forecast for this period
Text: FM240900 07012KT P6SM FEW020 SCT040
Forecast period: 0900 to 1800 UTC 24 January 2019
Forecast type: FROM: standard forecast or significant change
Winds: from the ENE (70 degrees) at 14 MPH (12 knots; 6.2 m/s)
Visibility: 6 or more miles 10+ km)
Ceiling: at least 12,000 feet AGL
Clouds: few clouds at 2000 feet AGL
scattered clouds at 4000 feet AGL
Weather: no significant weather forecast for this period